Time;durP1;ratioP1;P1;durP2;ratioP2;P2;SDS_P1;SDS_P2;PMS_P1;PMS_P2;Temp;Humidity;BMP_temperature;BMP_pressure;BME280_temperature;BME280_humidity;BME280_pressure;Samples;Min_cycle;Max_cycle;Signal;HPM_P1;HPM_P2
2021/06/02 00:00:20;;;;;;;;;7.25;6.50;;;;;23.16;37.89;100567.69;5059724;28;45953;-56
2021/06/02 00:02:53;;;;;;;;;8.25;6.75;;;;;23.15;37.97;100560.59;5065521;28;45269;-56
2021/06/02 00:05:19;;;;;;;;;8.00;7.00;;;;;23.12;37.69;100561.66;5079723;28;45439;-55
2021/06/02 00:07:46;;;;;;;;;7.75;7.75;;;;;23.08;37.98;100557.50;5065628;28;45255;-57
2021/06/02 00:10:13;;;;;;;;;8.00;8.00;;;;;23.04;37.82;100556.84;5078947;27;45291;-54
2021/06/02 00:12:40;;;;;;;;;8.00;7.00;;;;;23.01;38.32;100549.00;5075398;28;45312;-55
2021/06/02 00:15:08;;;;;;;;;7.25;7.25;;;;;22.97;38.34;100557.38;5067782;27;45301;-55
2021/06/02 00:17:33;;;;;;;;;8.00;7.25;;;;;22.96;38.02;100559.19;5074945;27;45721;-55
2021/06/02 00:19:59;;;;;;;;;7.75;6.50;;;;;22.92;38.42;100557.69;5059291;28;46462;-55
2021/06/02 00:22:24;;;;;;;;;8.50;8.50;;;;;22.91;38.54;100558.66;5059317;28;45466;-54
2021/06/02 00:24:49;;;;;;;;;9.50;7.25;;;;;22.87;39.06;100555.31;5075216;28;45499;-54
2021/06/02 00:27:16;;;;;;;;;9.00;7.50;;;;;22.88;38.91;100561.56;5074618;27;46317;-54
2021/06/02 00:29:44;;;;;;;;;11.00;8.00;;;;;22.85;39.01;100564.41;5059279;28;46736;-54
2021/06/02 00:32:12;;;;;;;;;9.00;8.00;;;;;22.82;39.07;100560.13;5058983;28;45354;-54
2021/06/02 00:34:38;;;;;;;;;9.00;7.75;;;;;22.80;39.22;100566.56;5059490;28;45339;-54
2021/06/02 00:37:06;;;;;;;;;11.25;8.75;;;;;22.76;39.00;100567.75;5074810;28;45477;-55
2021/06/02 00:39:33;;;;;;;;;8.00;7.25;;;;;22.74;39.47;100573.19;5076664;28;47219;-54
2021/06/02 00:41:59;;;;;;;;;11.50;8.75;;;;;22.71;39.60;100563.53;5059037;28;45344;-54
2021/06/02 00:44:24;;;;;;;;;8.00;8.00;;;;;22.69;39.12;100561.94;5062373;28;45331;-54
2021/06/02 00:46:51;;;;;;;;;7.25;7.25;;;;;22.68;39.46;100568.28;5078357;27;45534;-54
2021/06/02 00:49:25;;;;;;;;;6.75;6.25;;;;;22.66;39.44;100564.81;5062621;28;45302;-55
2021/06/02 00:51:54;;;;;;;;;10.50;8.00;;;;;22.62;39.16;100564.16;5062214;27;45257;-54
2021/06/02 00:54:20;;;;;;;;;7.25;7.00;;;;;22.58;39.21;100564.47;5062488;28;45247;-56
2021/06/02 00:56:48;;;;;;;;;9.25;7.50;;;;;22.54;39.93;100562.03;5062539;28;45223;-54
2021/06/02 00:59:24;;;;;;;;;7.75;7.75;;;;;22.52;39.81;100571.97;5062305;28;46088;-56
2021/06/02 01:01:53;;;;;;;;;7.75;6.75;;;;;22.51;39.67;100566.72;5061018;27;45447;-56
2021/06/02 01:04:26;;;;;;;;;8.75;8.75;;;;;22.44;39.89;100558.25;5081270;28;45243;-59
2021/06/02 01:06:52;;;;;;;;;9.25;9.25;;;;;22.42;40.04;100567.34;5085811;27;45285;-54
2021/06/02 01:09:21;;;;;;;;;10.00;8.00;;;;;22.39;40.31;100571.09;5064038;28;47368;-54
2021/06/02 01:11:48;;;;;;;;;6.50;6.50;;;;;22.32;40.26;100567.91;5085595;27;45384;-55
2021/06/02 01:14:15;;;;;;;;;8.50;8.50;;;;;22.29;40.26;100561.91;5077141;27;45338;-54
2021/06/02 01:16:42;;;;;;;;;6.25;6.00;;;;;22.24;40.75;100557.72;5055941;28;45312;-55
2021/06/02 01:19:10;;;;;;;;;8.75;7.75;;;;;22.23;40.77;100556.00;5092587;27;46828;-54
2021/06/02 01:21:50;;;;;;;;;7.75;7.75;;;;;22.20;40.73;100558.88;5090248;27;45214;-54
2021/06/02 01:24:16;;;;;;;;;8.00;7.50;;;;;22.15;40.68;100549.44;5070256;28;45465;-54
2021/06/02 01:26:42;;;;;;;;;7.50;7.50;;;;;22.12;41.00;100552.31;5078760;27;45348;-54
2021/06/02 01:29:07;;;;;;;;;9.00;7.00;;;;;22.07;40.91;100552.63;5082038;27;45667;-54
2021/06/02 01:31:52;;;;;;;;;6.75;6.75;;;;;22.02;41.10;100552.91;5075224;28;45662;-54
2021/06/02 01:34:56;;;;;;;;;9.00;8.25;;;;;21.98;41.17;100555.91;5077833;28;45251;-54
2021/06/02 01:37:46;;;;;;;;;7.75;7.75;;;;;21.92;41.76;100558.03;5066787;28;45273;-54
2021/06/02 01:40:34;;;;;;;;;8.50;7.00;;;;;21.86;41.85;100544.16;5073919;28;46632;-55
2021/06/02 01:43:17;;;;;;;;;8.75;7.50;;;;;21.82;41.70;100554.19;5076890;28;45325;-54
2021/06/02 01:45:52;;;;;;;;;6.50;6.25;;;;;21.75;42.24;100561.78;5061839;28;45426;-54
2021/06/02 01:48:28;;;;;;;;;8.00;8.00;;;;;21.72;41.93;100556.63;5081453;28;45357;-55
2021/06/02 01:51:35;;;;;;;;;7.00;7.00;;;;;21.70;42.46;100560.38;5066950;27;46782;-55
2021/06/02 01:54:43;;;;;;;;;9.50;8.00;;;;;21.65;42.63;100552.63;5060860;28;45403;-55
2021/06/02 01:57:47;;;;;;;;;7.25;7.25;;;;;21.62;42.42;100562.66;5060525;28;45326;-53
2021/06/02 02:00:25;;;;;;;;;8.50;7.50;;;;;21.57;42.60;100563.81;5059278;28;45371;-54
2021/06/02 02:03:28;;;;;;;;;8.00;8.00;;;;;21.55;43.09;100572.84;5071697;28;47454;-55
2021/06/02 02:06:12;;;;;;;;;9.75;8.25;;;;;21.53;43.37;100567.59;5074834;28;45393;-55
2021/06/02 02:09:03;;;;;;;;;13.25;12.00;;;;;21.51;43.64;100561.50;5061383;28;45425;-55
2021/06/02 02:11:35;;;;;;;;;7.00;6.25;;;;;21.49;43.42;100565.22;5067696;27;45411;-55
2021/06/02 02:14:20;;;;;;;;;7.25;7.25;;;;;21.49;43.59;100570.56;5078086;27;47234;-54
2021/06/02 02:17:14;;;;;;;;;11.25;9.25;;;;;21.46;43.49;100558.25;5061373;28;45405;-55
2021/06/02 02:19:39;;;;;;;;;7.00;7.00;;;;;21.45;43.10;100561.03;5061548;28;45434;-55
2021/06/02 02:22:28;;;;;;;;;7.00;7.00;;;;;21.43;42.96;100567.31;5060857;28;45506;-57
2021/06/02 02:25:02;;;;;;;;;8.75;8.75;;;;;21.36;43.28;100559.78;5074357;28;45366;-55
2021/06/02 02:27:43;;;;;;;;;9.50;9.25;;;;;21.38;43.53;100568.56;5062123;28;45481;-54
2021/06/02 02:30:27;;;;;;;;;8.00;8.00;;;;;21.35;43.28;100571.44;5078235;27;45546;-55
2021/06/02 02:33:11;;;;;;;;;8.50;8.50;;;;;21.30;43.35;100570.88;5060988;28;45478;-55
2021/06/02 02:35:56;;;;;;;;;9.25;9.25;;;;;21.24;43.80;100572.09;5060807;28;45686;-55
2021/06/02 02:38:30;;;;;;;;;7.00;7.00;;;;;21.22;43.63;100569.50;5060783;28;45351;-55
2021/06/02 02:41:21;;;;;;;;;7.00;7.00;;;;;21.22;43.71;100579.31;5061468;28;45476;-56
2021/06/02 02:44:05;;;;;;;;;9.75;8.25;;;;;21.20;43.78;100575.91;5069772;28;45731;-54
2021/06/02 02:46:30;;;;;;;;;5.75;5.75;;;;;21.18;43.78;100581.34;5062141;27;45304;-56
2021/06/02 02:49:36;;;;;;;;;8.50;8.50;;;;;21.14;43.71;100570.94;5060752;28;45249;-55
2021/06/02 02:52:16;;;;;;;;;8.00;8.00;;;;;21.15;44.22;100572.66;5071126;28;45488;-55
2021/06/02 02:55:15;;;;;;;;;12.25;9.75;;;;;21.16;43.83;100577.91;5083075;27;45602;-55
2021/06/02 02:57:50;;;;;;;;;8.25;8.25;;;;;21.01;43.89;100555.66;5061270;28;47811;-56
2021/06/02 03:00:19;;;;;;;;;10.25;9.50;;;;;21.09;44.20;100569.41;5060459;28;45231;-53
2021/06/02 03:03:00;;;;;;;;;9.50;9.00;;;;;21.10;44.35;100576.44;5060573;28;45382;-55
2021/06/02 03:05:29;;;;;;;;;7.75;7.75;;;;;21.09;44.54;100574.75;5061734;28;45196;-55
2021/06/02 03:08:11;;;;;;;;;9.25;9.25;;;;;21.05;44.08;100559.84;5080762;27;46310;-55
2021/06/02 03:10:43;;;;;;;;;8.25;8.25;;;;;20.95;44.25;100550.69;5061071;28;45383;-55
2021/06/02 03:13:39;;;;;;;;;11.00;8.75;;;;;21.03;44.81;100576.91;5080487;28;45295;-56
2021/06/02 03:16:11;;;;;;;;;9.00;9.00;;;;;21.01;44.44;100587.72;5060520;28;45245;-55
2021/06/02 03:18:47;;;;;;;;;10.25;10.25;;;;;20.97;44.48;100586.19;5060052;28;45391;-55
2021/06/02 03:21:59;;;;;;;;;10.50;9.50;;;;;20.96;44.63;100583.63;5075640;28;45196;-55
2021/06/02 03:25:00;;;;;;;;;10.25;9.75;;;;;20.90;44.90;100579.47;5059908;28;45439;-55
2021/06/02 03:27:26;;;;;;;;;10.50;10.50;;;;;20.84;44.79;100571.84;5067775;28;45231;-54
2021/06/02 03:29:59;;;;;;;;;9.50;8.75;;;;;20.78;45.32;100570.41;5079067;27;46034;-55
2021/06/02 03:32:40;;;;;;;;;7.00;7.00;;;;;20.81;44.87;100577.38;5060225;28;45437;-55
2021/06/02 03:35:13;;;;;;;;;10.00;9.00;;;;;20.79;45.62;100572.09;5060106;28;45369;-55
2021/06/02 03:38:01;;;;;;;;;8.25;8.25;;;;;20.77;45.17;100574.88;5060124;28;45409;-55
2021/06/02 03:40:42;;;;;;;;;10.75;8.50;;;;;20.75;45.34;100570.56;5076110;27;47753;-53
2021/06/02 03:43:29;;;;;;;;;13.50;10.75;;;;;20.74;45.59;100568.84;5073235;28;45344;-55
2021/06/02 03:46:13;;;;;;;;;54.00;46.00;;;;;20.71;45.42;100564.56;5060050;28;45336;-55
2021/06/02 03:48:49;;;;;;;;;6.50;6.50;;;;;20.68;45.18;100572.72;5060011;28;45361;-55
2021/06/02 03:51:35;;;;;;;;;12.25;10.75;;;;;20.63;45.54;100578.34;5059566;28;45377;-56
2021/06/02 03:54:20;;;;;;;;;10.00;9.75;;;;;20.61;45.88;100576.69;5059647;28;45371;-55
2021/06/02 03:57:07;;;;;;;;;11.50;10.75;;;;;20.57;45.78;100573.34;5059830;28;45330;-55
2021/06/02 03:59:44;;;;;;;;;15.00;12.50;;;;;20.53;45.86;100578.97;5059544;28;45252;-55
2021/06/02 04:02:20;;;;;;;;;13.00;13.00;;;;;20.49;45.67;100578.28;5059442;28;45534;-55
2021/06/02 04:05:19;;;;;;;;;10.25;10.25;;;;;20.47;46.07;100585.53;5059675;28;45318;-55
2021/06/02 04:08:03;;;;;;;;;11.75;11.75;;;;;20.42;46.25;100588.44;5066866;28;45299;-55
2021/06/02 04:10:44;;;;;;;;;12.75;11.00;;;;;20.35;46.54;100579.09;5073466;28;45579;-55
2021/06/02 04:13:28;;;;;;;;;9.50;8.50;;;;;20.34;46.39;100577.38;5059096;28;47135;-55
2021/06/02 04:16:07;;;;;;;;;11.25;11.25;;;;;20.30;46.82;100571.34;5075048;28;45911;-55
2021/06/02 04:18:35;;;;;;;;;12.25;12.25;;;;;20.30;46.95;100576.69;5061493;28;45527;-54
2021/06/02 04:21:01;;;;;;;;;11.75;10.25;;;;;20.28;46.95;100589.25;5062891;28;45260;-55
2021/06/02 04:23:28;;;;;;;;;13.50;10.25;;;;;20.26;46.92;100604.50;5062774;28;46223;-55
2021/06/02 04:25:56;;;;;;;;;10.00;10.00;;;;;20.22;47.02;100588.75;5078557;27;45637;-55
2021/06/02 04:28:22;;;;;;;;;18.00;13.75;;;;;20.18;47.24;100576.53;5071793;28;45554;-56
2021/06/02 04:30:49;;;;;;;;;12.00;10.25;;;;;20.18;47.45;100572.06;5074321;27;45382;-54
2021/06/02 04:33:17;;;;;;;;;16.00;13.75;;;;;20.17;47.31;100580.16;5062779;28;46141;-56
2021/06/02 04:35:54;;;;;;;;;11.00;10.50;;;;;20.16;47.37;100589.09;5061567;28;45189;-55
2021/06/02 04:38:21;;;;;;;;;10.75;10.75;;;;;20.14;47.64;100597.19;5062739;28;45306;-55
2021/06/02 04:40:46;;;;;;;;;12.25;10.50;;;;;20.13;47.30;100584.78;5074095;28;45242;-55
2021/06/02 04:43:13;;;;;;;;;17.25;14.50;;;;;20.12;47.99;100589.28;5064984;28;46165;-55
2021/06/02 04:45:54;;;;;;;;;10.75;10.25;;;;;20.13;47.89;100585.66;5062785;28;45307;-56
2021/06/02 04:48:19;;;;;;;;;12.75;12.00;;;;;20.16;48.12;100597.94;5077537;27;45259;-55
2021/06/02 04:50:54;;;;;;;;;13.25;11.25;;;;;20.16;47.73;100597.94;5062442;28;45238;-55
2021/06/02 04:53:39;;;;;;;;;14.50;12.25;;;;;20.14;47.94;100592.69;5065402;28;46274;-56
2021/06/02 04:56:29;;;;;;;;;14.75;14.00;;;;;20.19;48.01;100615.59;5075888;28;45189;-55
2021/06/02 04:59:16;;;;;;;;;8.75;6.25;;;;;20.16;48.15;100602.44;5062105;28;45454;-55
2021/06/02 05:02:01;;;;;;;;;14.75;14.75;;;;;20.09;48.24;100621.44;5077962;28;45484;-55
2021/06/02 05:05:00;;;;;;;;;12.25;10.50;;;;;20.01;48.78;100615.66;5062140;28;46349;-55
2021/06/02 05:08:02;;;;;;;;;15.50;13.25;;;;;19.96;49.02;100626.63;5062319;28;45233;-55
2021/06/02 05:11:05;;;;;;;;;13.50;12.50;;;;;19.91;49.58;100617.13;5072829;28;45309;-55
2021/06/02 05:13:46;;;;;;;;;11.50;11.50;;;;;19.87;49.60;100621.78;5061784;28;45594;-55
2021/06/02 05:16:49;;;;;;;;;15.25;14.25;;;;;19.87;49.70;100615.59;5062114;28;46194;-55
2021/06/02 05:22:32;;;;;;;;;15.75;13.50;;;;;19.76;51.33;100637.47;5061840;28;45165;-55
2021/06/02 05:25:42;;;;;;;;;12.75;10.75;;;;;19.73;50.62;100630.50;5061907;28;45277;-55
2021/06/02 05:28:45;;;;;;;;;17.50;14.00;;;;;19.75;51.24;100639.28;5068631;28;46117;-56
2021/06/02 05:31:29;;;;;;;;;14.75;13.75;;;;;19.77;50.99;100632.06;5073083;28;45279;-54
2021/06/02 05:34:10;;;;;;;;;16.25;15.25;;;;;19.79;51.35;100640.81;5062135;28;45287;-54
2021/06/02 05:36:50;;;;;;;;;13.50;13.50;;;;;19.81;51.61;100636.28;5061796;28;45236;-53
2021/06/02 05:39:50;;;;;;;;;14.50;14.25;;;;;19.86;52.13;100632.53;5077208;28;47049;-55
2021/06/02 05:43:12;;;;;;;;;16.75;15.00;;;;;19.87;52.19;100637.75;5066316;28;45259;-56
2021/06/02 05:46:02;;;;;;;;;17.25;17.25;;;;;19.88;52.63;100649.31;5022357;28;45522;-58
2021/06/02 05:49:05;;;;;;;;;13.75;13.75;;;;;19.86;52.80;100646.72;5039159;28;45306;-56
2021/06/02 05:51:39;;;;;;;;;16.25;13.75;;;;;19.87;53.57;100650.25;5054697;28;47273;-53
2021/06/02 05:54:17;;;;;;;;;16.75;15.75;;;;;19.94;53.30;100648.97;5071406;28;45259;-54
2021/06/02 05:57:16;;;;;;;;;15.00;14.00;;;;;19.96;53.98;100657.72;5072849;27;45381;-54
2021/06/02 05:59:53;;;;;;;;;16.50;14.50;;;;;19.96;53.51;100657.72;5068453;28;45306;-51
2021/06/02 06:02:56;;;;;;;;;15.50;15.25;;;;;19.97;53.74;100649.69;5065944;27;45541;-60
2021/06/02 06:05:40;;;;;;;;;16.75;16.75;;;;;20.04;53.74;100657.34;5076868;28;45334;-55
2021/06/02 06:08:23;;;;;;;;;15.50;14.25;;;;;20.07;53.66;100660.66;5061670;28;45326;-55
2021/06/02 06:11:33;;;;;;;;;15.25;13.50;;;;;20.11;54.00;100656.91;5072475;28;45838;-54
2021/06/02 06:14:21;;;;;;;;;13.75;11.75;;;;;20.20;54.23;100657.31;5055759;28;48294;-56
2021/06/02 06:17:10;;;;;;;;;15.25;14.50;;;;;20.22;54.25;100648.28;5068620;27;45300;-53
2021/06/02 06:20:00;;;;;;;;;16.25;14.50;;;;;20.22;54.87;100661.63;5061336;28;45406;-54
2021/06/02 06:22:40;;;;;;;;;17.25;15.50;;;;;20.22;55.13;100663.44;5060628;28;45794;-56
2021/06/02 06:25:24;;;;;;;;;15.75;15.25;;;;;20.20;55.99;100662.66;5061051;28;46089;-53
2021/06/02 06:27:55;;;;;;;;;18.00;16.00;;;;;20.23;55.03;100652.69;5065280;28;45323;-53
2021/06/02 06:30:25;;;;;;;;;16.75;14.00;;;;;20.25;55.29;100660.59;5076030;27;45429;-51
2021/06/02 06:32:53;;;;;;;;;13.50;13.50;;;;;20.35;55.62;100661.81;5060945;28;45381;-55
2021/06/02 06:35:24;;;;;;;;;16.00;14.00;;;;;20.46;55.66;100658.53;5060677;28;46189;-47
2021/06/02 06:37:52;;;;;;;;;16.25;15.00;;;;;20.52;55.28;100652.00;5060739;28;45463;-47
2021/06/02 06:40:27;;;;;;;;;16.75;13.00;;;;;20.57;55.56;100657.91;5061204;28;45480;-50
2021/06/02 06:42:55;;;;;;;;;18.00;14.25;;;;;20.61;55.10;100662.13;5072516;28;45275;-49
2021/06/02 06:45:24;;;;;;;;;20.25;17.50;;;;;20.58;56.12;100648.97;5070715;28;47449;-48
2021/06/02 06:47:52;;;;;;;;;16.50;15.50;;;;;20.71;55.18;100662.50;5060781;28;45392;-41
2021/06/02 06:50:19;;;;;;;;;13.75;13.75;;;;;20.75;55.77;100664.91;5060908;28;45399;-42
2021/06/02 06:52:54;;;;;;;;;16.75;16.50;;;;;20.77;56.08;100672.81;5060588;28;45460;-42
2021/06/02 06:55:22;;;;;;;;;17.00;17.00;;;;;20.78;56.75;100672.72;5079423;28;48444;-54
2021/06/02 06:57:49;;;;;;;;;14.50;14.25;;;;;20.87;56.30;100668.66;5076283;28;45500;-43
2021/06/02 07:00:15;;;;;;;;;17.25;15.50;;;;;20.93;55.85;100660.28;5060971;28;45283;-49
2021/06/02 07:02:43;;;;;;;;;15.50;15.50;;;;;21.01;55.38;100662.50;5076277;28;45451;-49
2021/06/02 07:05:10;;;;;;;;;19.00;16.25;;;;;21.05;55.54;100663.19;5059407;28;45442;-44
2021/06/02 07:07:36;;;;;;;;;11.75;11.75;;;;;21.11;55.15;100663.66;5060324;28;45284;-47
2021/06/02 07:10:07;;;;;;;;;15.50;15.00;;;;;21.20;55.00;100675.63;5070024;28;45415;-47
2021/06/02 07:12:35;;;;;;;;;16.50;15.50;;;;;21.27;55.62;100674.31;5075700;27;45519;-43
2021/06/02 07:15:02;;;;;;;;;16.25;16.25;;;;;21.36;55.59;100672.03;5084577;27;47284;-50
2021/06/02 07:17:28;;;;;;;;;16.00;13.00;;;;;21.41;55.19;100677.97;5075664;28;46201;-48
2021/06/02 07:19:59;;;;;;;;;12.50;11.25;;;;;21.47;55.31;100677.59;5060279;28;45350;-49
2021/06/02 07:22:27;;;;;;;;;8.00;8.00;;;;;21.47;56.52;100674.91;5059610;28;45188;-49
2021/06/02 07:24:54;;;;;;;;;20.00;14.00;;;;;21.53;55.68;100679.00;5060120;28;45335;-50
2021/06/02 07:27:20;;;;;;;;;16.25;15.00;;;;;21.58;55.42;100687.63;5060622;28;45244;-47
2021/06/02 07:29:45;;;;;;;;;13.50;10.00;;;;;21.56;55.22;100682.41;5081055;27;45305;-48
2021/06/02 07:32:11;;;;;;;;;14.00;14.00;;;;;21.67;55.85;100680.88;5060143;27;45369;-47
2021/06/02 07:34:36;;;;;;;;;14.75;14.50;;;;;21.78;55.75;100680.22;5059972;28;46281;-47
2021/06/02 07:37:02;;;;;;;;;16.50;15.00;;;;;21.80;55.12;100684.50;5076748;27;45468;-47
2021/06/02 07:39:28;;;;;;;;;15.75;14.25;;;;;21.81;55.14;100675.53;5076637;28;45440;-50
2021/06/02 07:41:53;;;;;;;;;16.00;15.00;;;;;21.89;55.25;100680.41;5073478;28;45635;-46
2021/06/02 07:44:18;;;;;;;;;18.00;17.75;;;;;22.01;54.54;100689.44;5075683;27;46666;-45
2021/06/02 07:46:44;;;;;;;;;18.25;15.75;;;;;22.11;54.87;100687.91;5059819;28;45165;-45
2021/06/02 07:49:09;;;;;;;;;15.75;14.00;;;;;22.19;54.45;100690.13;5060068;28;45226;-45
2021/06/02 07:51:36;;;;;;;;;18.00;15.00;;;;;22.21;54.80;100686.38;5059438;28;45375;-48
2021/06/02 07:54:03;;;;;;;;;15.25;14.25;;;;;22.21;54.64;100694.41;5059117;28;45984;-45
2021/06/02 07:56:28;;;;;;;;;15.25;15.25;;;;;22.26;54.04;100693.25;5079962;28;45340;-45
2021/06/02 07:58:54;;;;;;;;;15.00;14.00;;;;;22.29;54.02;100682.34;5066298;27;45402;-48
2021/06/02 08:01:19;;;;;;;;;14.00;12.75;;;;;22.33;54.01;100695.44;5059607;28;45493;-45
2021/06/02 08:03:44;;;;;;;;;19.25;15.75;;;;;22.43;54.68;100698.41;5075098;28;45531;-43
2021/06/02 08:06:10;;;;;;;;;14.75;14.50;;;;;22.44;54.44;100696.59;5066448;28;45347;-44
2021/06/02 08:08:35;;;;;;;;;16.50;16.25;;;;;22.53;54.34;100693.31;5082116;27;45299;-44
2021/06/02 08:11:01;;;;;;;;;18.00;14.00;;;;;22.61;54.24;100701.69;5072815;28;45339;-42
2021/06/02 08:13:26;;;;;;;;;19.25;15.50;;;;;22.67;53.89;100698.63;5079459;27;46745;-44
2021/06/02 08:15:52;;;;;;;;;14.75;13.00;;;;;22.71;54.04;100718.88;5059699;28;45374;-46
2021/06/02 08:18:17;;;;;;;;;12.75;12.75;;;;;22.77;54.63;100698.88;5058986;28;45402;-46
2021/06/02 08:20:42;;;;;;;;;17.50;16.50;;;;;22.86;53.84;100700.09;5059128;28;45263;-48
2021/06/02 08:23:08;;;;;;;;;22.50;17.75;;;;;22.91;53.63;100699.78;5059280;28;47117;-43
2021/06/02 08:25:34;;;;;;;;;14.50;14.50;;;;;22.96;53.40;100709.22;5059255;28;45259;-44
2021/06/02 08:27:59;;;;;;;;;15.00;14.25;;;;;23.11;53.43;100701.97;5064953;28;45343;-46
2021/06/02 08:30:25;;;;;;;;;16.75;15.50;;;;;23.24;54.02;100715.41;5074082;27;45247;-47
2021/06/02 08:32:50;;;;;;;;;17.50;16.25;;;;;23.36;53.37;100719.09;5059330;28;46180;-43
2021/06/02 08:35:18;;;;;;;;;18.75;17.25;;;;;23.40;53.51;100715.25;5057855;28;45233;-43
2021/06/02 08:37:44;;;;;;;;;35.25;30.75;;;;;23.47;53.63;100721.03;5059597;28;45390;-44
2021/06/02 08:40:11;;;;;;;;;54.50;45.00;;;;;23.52;53.38;100719.75;5059552;28;45352;-45
2021/06/02 08:42:49;;;;;;;;;22.50;20.50;;;;;23.55;53.10;100713.31;5070676;28;46180;-44
2021/06/02 08:45:17;;;;;;;;;18.00;17.50;;;;;23.66;53.36;100709.88;5066944;28;45216;-42
2021/06/02 08:47:42;;;;;;;;;21.25;17.75;;;;;23.77;52.46;100715.38;5064517;28;45364;-44
2021/06/02 08:50:10;;;;;;;;;39.75;34.00;;;;;23.93;52.60;100720.53;5074616;28;45441;-44
2021/06/02 08:52:38;;;;;;;;;17.50;15.25;;;;;24.02;52.45;100724.38;5058940;28;45326;-45
2021/06/02 08:55:08;;;;;;;;;69.00;54.25;;;;;24.10;52.37;100715.78;5059052;28;45276;-46
2021/06/02 08:57:38;;;;;;;;;36.25;29.50;;;;;24.26;51.87;100712.84;5058661;28;45368;-48
2021/06/02 09:00:07;;;;;;;;;20.50;19.75;;;;;24.46;51.96;100714.94;5059246;28;45308;-46
2021/06/02 09:02:32;;;;;;;;;21.00;20.25;;;;;24.57;51.83;100719.53;5057463;28;48690;-47
2021/06/02 09:04:57;;;;;;;;;12.50;12.25;;;;;24.59;51.27;100717.59;5061463;28;45272;-48
2021/06/02 09:07:25;;;;;;;;;18.50;17.50;;;;;24.63;51.30;100718.22;5062433;28;45466;-48
2021/06/02 09:09:52;;;;;;;;;15.25;14.75;;;;;24.64;51.56;100710.09;5070194;28;45291;-45
2021/06/02 09:12:32;;;;;;;;;17.50;16.25;;;;;24.75;50.93;100711.09;5077201;27;46329;-46
2021/06/02 09:15:07;;;;;;;;;13.75;12.75;;;;;24.89;51.19;100708.25;5071355;27;45520;-48
2021/06/02 09:17:46;;;;;;;;;19.50;16.75;;;;;25.01;50.26;100713.69;5062071;28;45503;-47
2021/06/02 09:20:11;;;;;;;;;17.50;15.50;;;;;25.01;49.93;100702.94;5062038;28;45496;-45
2021/06/02 09:22:37;;;;;;;;;16.00;14.25;;;;;25.17;50.20;100710.66;5077334;28;48229;-48
2021/06/02 09:25:03;;;;;;;;;15.25;14.75;;;;;25.29;50.16;100707.88;5062111;28;45146;-44
2021/06/02 09:27:59;;;;;;;;;18.00;16.25;;;;;25.46;49.72;100711.16;5079304;28;45274;-48
2021/06/02 09:30:33;;;;;;;;;18.00;16.75;;;;;25.57;49.33;100724.63;5066839;28;45229;-46
2021/06/02 09:33:00;;;;;;;;;17.50;17.00;;;;;25.67;48.91;100719.34;5068440;27;46949;-47
2021/06/02 09:35:40;;;;;;;;;12.75;11.50;;;;;25.70;48.80;100713.75;5061956;28;45304;-48
2021/06/02 09:38:07;;;;;;;;;16.00;14.50;;;;;25.81;48.67;100726.38;5061680;28;45248;-48
2021/06/02 09:40:36;;;;;;;;;18.25;15.75;;;;;25.95;48.82;100718.03;5062109;28;45253;-45
2021/06/02 09:43:02;;;;;;;;;17.75;14.75;;;;;26.15;48.21;100722.84;5074740;28;45605;-45
2021/06/02 09:45:28;;;;;;;;;16.50;14.50;;;;;26.26;48.04;100725.53;5061818;28;45480;-46
2021/06/02 09:48:00;;;;;;;;;11.75;11.75;;;;;26.44;47.71;100715.94;5061708;28;45513;-45
2021/06/02 09:50:39;;;;;;;;;17.25;15.00;;;;;26.53;47.71;100721.56;5061572;28;45252;-46
2021/06/02 09:53:07;;;;;;;;;15.50;14.75;;;;;26.68;47.12;100719.44;5074997;28;45268;-44
2021/06/02 09:55:38;;;;;;;;;14.00;12.50;;;;;26.85;46.82;100716.22;5061535;28;45251;-48
2021/06/02 09:58:07;;;;;;;;;14.25;13.75;;;;;26.97;46.42;100724.25;5068727;28;45241;-46
2021/06/02 10:00:34;;;;;;;;;11.75;10.50;;;;;27.19;46.39;100720.63;5067298;27;45303;-45
2021/06/02 10:03:05;;;;;;;;;14.75;14.75;;;;;27.39;46.25;100722.47;5061450;28;46201;-43
2021/06/02 10:05:41;;;;;;;;;14.00;13.00;;;;;27.62;45.73;100729.59;5076983;28;45326;-44
2021/06/02 10:08:11;;;;;;;;;15.25;14.25;;;;;27.84;45.35;100734.81;5061689;28;45323;-46
2021/06/02 10:10:36;;;;;;;;;15.25;15.25;;;;;28.00;44.45;100711.84;5063790;28;45566;-45
2021/06/02 10:13:11;;;;;;;;;13.00;13.00;;;;;28.11;44.44;100724.44;5080513;28;45420;-46
2021/06/02 10:15:42;;;;;;;;;18.25;17.00;;;;;28.11;43.58;100730.69;5064159;27;45298;-45
2021/06/02 10:18:25;;;;;;;;;15.50;14.75;;;;;28.16;43.85;100735.69;5071838;28;45247;-45
2021/06/02 10:21:09;;;;;;;;;12.00;12.00;;;;;28.38;43.01;100732.78;5074877;28;45473;-43
2021/06/02 10:23:40;;;;;;;;;13.50;13.50;;;;;28.53;43.22;100737.81;5059392;28;45563;-46
2021/06/02 10:26:07;;;;;;;;;13.50;12.00;;;;;28.65;42.81;100727.72;5076809;28;45598;-46
2021/06/02 10:28:33;;;;;;;;;15.00;15.00;;;;;28.82;42.10;100731.63;5079676;28;45504;-45
2021/06/02 10:31:06;;;;;;;;;10.75;10.25;;;;;29.23;41.71;100736.88;5078672;28;45443;-44
2021/06/02 10:33:32;;;;;;;;;10.50;10.50;;;;;29.60;40.39;100752.38;5080353;28;45313;-44
2021/06/02 10:36:00;;;;;;;;;12.00;12.00;;;;;29.99;39.67;100755.00;5079006;28;45343;-43
2021/06/02 10:38:27;;;;;;;;;10.25;10.25;;;;;31.05;39.09;100745.53;5080418;28;45374;-43
2021/06/02 10:40:55;;;;;;;;;13.00;13.00;;;;;32.77;37.60;100749.44;5077779;27;45240;-44
2021/06/02 10:43:47;;;;;;;;;10.25;10.25;;;;;35.03;33.88;100754.03;5078563;28;46433;-45
2021/06/02 10:46:17;;;;;;;;;15.00;15.00;;;;;37.35;31.46;100750.19;5071123;28;45465;-46
2021/06/02 10:48:46;;;;;;;;;17.75;12.50;;;;;39.96;29.22;100753.69;5080276;27;45503;-45
2021/06/02 10:51:30;;;;;;;;;13.75;12.00;;;;;42.13;25.51;100757.41;5080121;27;45251;-48
2021/06/02 10:54:06;;;;;;;;;12.25;12.25;;;;;43.85;21.80;100756.84;5079721;27;46349;-46
2021/06/02 10:56:32;;;;;;;;;13.25;12.75;;;;;45.69;21.49;100773.53;5076237;28;45414;-45
2021/06/02 10:58:58;;;;;;;;;13.50;13.00;;;;;46.01;18.91;100768.16;5078637;27;45223;-48
2021/06/02 11:01:23;;;;;;;;;10.50;10.50;;;;;47.95;17.69;100774.03;5080092;28;45583;-48
2021/06/02 11:04:10;;;;;;;;;12.00;10.50;;;;;50.58;16.43;100773.81;5078219;28;46562;-49
2021/06/02 11:06:38;;;;;;;;;13.25;13.25;;;;;52.62;14.54;100776.59;5079846;27;45433;-46
2021/06/02 11:09:05;;;;;;;;;12.00;12.00;;;;;54.23;12.16;100772.44;5079814;28;45400;-45
2021/06/02 11:11:41;;;;;;;;;7.25;7.25;;;;;55.46;9.71;100769.63;5078441;27;45336;-46
2021/06/02 11:16:43;;;;;;;;;14.25;14.25;;;;;50.11;12.44;100761.25;5076950;28;45388;-47
2021/06/02 11:19:23;;;;;;;;;12.50;11.50;;;;;50.16;13.18;100776.00;5079753;28;45437;-45
2021/06/02 11:21:52;;;;;;;;;16.50;15.00;;;;;50.44;11.92;100761.63;5077798;28;45407;-43
2021/06/02 11:24:33;;;;;;;;;11.00;11.00;;;;;48.55;13.90;100755.00;5079639;27;45491;-51
2021/06/02 11:27:27;;;;;;;;;13.25;10.75;;;;;49.83;14.00;100774.72;5078042;28;45318;-48
2021/06/02 11:29:55;;;;;;;;;11.50;11.50;;;;;46.29;14.64;100754.31;5079259;28;45538;-43
2021/06/02 11:32:20;;;;;;;;;10.50;10.50;;;;;42.77;17.15;100759.78;5079558;27;45345;-48
2021/06/02 11:34:56;;;;;;;;;12.50;12.00;;;;;39.79;19.97;100761.56;5078953;28;45412;-49
2021/06/02 11:37:24;;;;;;;;;16.00;14.00;;;;;37.81;21.71;100746.97;5079511;27;45402;-45
2021/06/02 11:39:52;;;;;;;;;13.50;13.50;;;;;36.60;23.31;100739.53;5077052;28;45520;-48
2021/06/02 11:42:52;;;;;;;;;13.00;13.00;;;;;35.59;25.06;100757.28;5079034;28;45572;-42
2021/06/02 11:45:21;;;;;;;;;14.75;12.25;;;;;35.14;26.15;100756.31;5072183;28;46337;-44
2021/06/02 11:47:48;;;;;;;;;11.25;10.75;;;;;34.75;26.44;100751.81;5079039;27;45493;-43
2021/06/02 11:50:20;;;;;;;;;15.50;13.50;;;;;34.48;27.76;100760.31;5079183;28;45418;-45
2021/06/02 11:52:55;;;;;;;;;13.25;12.25;;;;;34.23;28.38;100755.97;5078738;28;45207;-45
2021/06/02 11:55:20;;;;;;;;;17.75;15.00;;;;;34.22;28.32;100751.56;5079260;28;45237;-46